Rochester, Minnesota
Current Conditions -  °F | °C
As of 12:43 PM on Thursday 23 Oct 2014 (Local Time) from KRST Reporting Station
Overcast Overcast  
Wind Chill: 52°   Ceiling: 500
Heat Index: 52°   Visibility: 8mi
Dew Point: 50°   Wind: 7mph
Humidity: 93%   Direction: 210°SSW
Pressure: 30.03"   Gusts: NA
Location:  44.02°N, 92.46°W
Report Text: KRST 231743Z 21006KT 8SM OVC005 11/10 A3003 RMK AO2 T01110100
Loading
Personal Weather Stations






























Interactive Weather Map
Tropical Storm Tracking
New forecast layout! Learn more

10-Day Weather Forecast

Advertisements
Track Severe Weather on mobile